createdAt,value
2018-03-08T00:00:40.745Z,5.03
2018-03-08T00:03:06.812Z,5.01
2018-03-08T00:05:32.856Z,4.99
2018-03-08T00:07:58.885Z,4.97
2018-03-08T00:10:24.876Z,5.01
2018-03-08T00:12:50.893Z,4.98
2018-03-08T00:15:16.913Z,4.96
2018-03-08T00:17:42.960Z,4.98
2018-03-08T00:20:08.978Z,4.98
2018-03-08T00:22:34.965Z,4.96
2018-03-08T00:25:01.004Z,4.98
2018-03-08T00:27:27.022Z,4.97
2018-03-08T00:29:53.020Z,4.98
2018-03-08T00:32:19.062Z,4.99
2018-03-08T00:34:45.102Z,5.00
2018-03-08T00:37:11.184Z,4.99
2018-03-08T00:39:37.173Z,4.96
2018-03-08T00:42:03.239Z,4.95
2018-03-08T00:44:29.229Z,4.95
2018-03-08T00:46:55.269Z,4.94
2018-03-08T00:49:21.205Z,4.92
2018-03-08T00:51:47.233Z,4.93
2018-03-08T00:54:13.219Z,4.94
2018-03-08T00:56:39.229Z,4.92
2018-03-08T00:59:05.241Z,4.89
2018-03-08T01:01:31.237Z,4.83
2018-03-08T01:03:57.278Z,4.86
2018-03-08T01:06:23.364Z,4.85
2018-03-08T01:08:49.465Z,4.84
2018-03-08T01:11:15.486Z,4.82
2018-03-08T01:13:41.497Z,4.81
2018-03-08T01:16:07.537Z,4.77
2018-03-08T01:18:33.570Z,4.77
2018-03-08T01:20:59.600Z,4.74
2018-03-08T01:23:25.620Z,4.74
2018-03-08T01:25:51.621Z,4.74
2018-03-08T01:28:17.646Z,4.74
2018-03-08T01:30:43.670Z,4.70
2018-03-08T01:33:09.689Z,4.73
2018-03-08T01:35:35.685Z,4.70
2018-03-08T01:38:01.670Z,4.67
2018-03-08T01:40:27.654Z,4.67
2018-03-08T01:42:53.600Z,4.64
2018-03-08T01:45:19.616Z,4.59
2018-03-08T01:47:45.694Z,4.56
2018-03-08T01:50:11.739Z,4.52
2018-03-08T01:52:37.748Z,4.53
2018-03-08T01:55:03.792Z,4.53
2018-03-08T01:57:29.801Z,4.55
2018-03-08T01:59:55.814Z,4.55
2018-03-08T02:02:21.845Z,4.56
2018-03-08T02:04:47.818Z,4.62
2018-03-08T02:07:13.868Z,4.60
2018-03-08T02:09:39.884Z,4.58
2018-03-08T02:12:05.904Z,4.58
2018-03-08T02:14:31.908Z,4.62
2018-03-08T02:16:57.909Z,4.62
2018-03-08T02:19:23.910Z,4.63
2018-03-08T02:21:49.939Z,4.65
2018-03-08T02:24:15.998Z,4.64
2018-03-08T02:26:42.018Z,4.63
2018-03-08T02:29:08.711Z,4.65
2018-03-08T02:31:34.665Z,4.62
2018-03-08T02:34:00.729Z,4.63
2018-03-08T02:36:26.715Z,4.63
2018-03-08T02:38:52.762Z,4.61
2018-03-08T02:41:18.800Z,4.63
2018-03-08T02:43:44.786Z,4.61
2018-03-08T02:46:10.784Z,4.62
2018-03-08T02:48:36.804Z,4.63
2018-03-08T02:51:02.799Z,4.64
2018-03-08T02:53:28.920Z,4.65
2018-03-08T02:55:54.926Z,4.65
2018-03-08T02:58:21.150Z,4.64
2018-03-08T03:00:47.513Z,4.64
2018-03-08T03:03:13.514Z,4.63
2018-03-08T03:05:39.562Z,4.62
2018-03-08T03:08:05.546Z,4.62
2018-03-08T03:10:31.528Z,4.58
2018-03-08T03:12:57.505Z,4.60
2018-03-08T03:15:23.544Z,4.57
2018-03-08T03:17:49.618Z,4.58
2018-03-08T03:20:15.612Z,4.56
2018-03-08T03:22:41.636Z,4.54
2018-03-08T03:25:07.653Z,4.54
2018-03-08T03:27:33.660Z,4.52
2018-03-08T03:30:00.219Z,4.47
2018-03-08T03:32:26.225Z,4.46
2018-03-08T03:34:52.233Z,4.46
2018-03-08T03:37:18.252Z,4.44
2018-03-08T03:39:51.969Z,4.45
2018-03-08T03:42:18.049Z,4.42
2018-03-08T03:44:44.046Z,4.40
2018-03-08T03:47:10.020Z,4.37
2018-03-08T03:49:36.097Z,4.36
2018-03-08T03:52:02.122Z,4.41
2018-03-08T03:54:28.075Z,4.39
2018-03-08T03:56:54.086Z,4.38
2018-03-08T03:59:20.107Z,4.37
2018-03-08T04:01:46.126Z,4.36
2018-03-08T04:04:12.146Z,4.33
2018-03-08T04:06:38.173Z,4.33
2018-03-08T04:09:04.126Z,4.30
2018-03-08T04:11:30.204Z,4.29
2018-03-08T04:13:56.205Z,4.29
2018-03-08T04:16:22.173Z,4.28
2018-03-08T04:18:48.181Z,4.24
2018-03-08T04:21:14.145Z,4.26
2018-03-08T04:23:40.149Z,4.24
2018-03-08T04:26:06.200Z,4.22
2018-03-08T04:28:32.194Z,4.18
2018-03-08T04:30:58.224Z,4.23
2018-03-08T04:33:24.272Z,4.20
2018-03-08T04:35:50.313Z,4.18
2018-03-08T04:38:16.299Z,4.15
2018-03-08T04:40:42.317Z,4.16
2018-03-08T04:43:08.266Z,4.14
2018-03-08T04:45:34.366Z,4.15
2018-03-08T04:48:00.430Z,4.16
2018-03-08T04:50:26.448Z,4.14
2018-03-08T04:52:52.487Z,4.17
2018-03-08T04:55:18.633Z,4.20
2018-03-08T04:57:44.657Z,4.18
2018-03-08T05:00:10.693Z,4.17
2018-03-08T05:02:36.833Z,4.15
2018-03-08T05:05:03.087Z,4.04
2018-03-08T05:07:29.101Z,4.10
2018-03-08T05:09:55.093Z,4.11
2018-03-08T05:12:21.294Z,4.07
2018-03-08T05:14:47.333Z,4.09
2018-03-08T05:17:13.350Z,4.06
2018-03-08T05:19:39.388Z,4.05
2018-03-08T05:22:05.425Z,4.04
2018-03-08T05:24:31.478Z,4.02
2018-03-08T05:26:57.496Z,3.99
2018-03-08T05:29:23.506Z,3.95
2018-03-08T05:31:49.526Z,3.91
2018-03-08T05:34:15.614Z,3.89
2018-03-08T05:36:41.637Z,3.88
2018-03-08T05:39:07.666Z,3.82
2018-03-08T05:41:33.725Z,3.82
2018-03-08T05:43:59.768Z,3.79
2018-03-08T05:46:25.789Z,3.78
2018-03-08T05:48:51.807Z,3.76
2018-03-08T05:51:17.934Z,3.76
2018-03-08T05:53:43.985Z,3.77
2018-03-08T05:56:10.025Z,3.73
2018-03-08T05:58:36.054Z,3.71
2018-03-08T06:01:02.141Z,3.70
2018-03-08T06:03:28.263Z,3.69
2018-03-08T06:05:54.282Z,3.70
2018-03-08T06:08:20.386Z,3.74
2018-03-08T06:10:46.333Z,3.75
2018-03-08T06:13:12.326Z,3.77
2018-03-08T06:15:39.187Z,3.78
2018-03-08T06:18:05.325Z,3.77
2018-03-08T06:20:31.353Z,3.81
2018-03-08T06:22:57.402Z,3.78
2018-03-08T06:25:23.395Z,3.87
2018-03-08T06:27:49.421Z,3.90
2018-03-08T06:30:15.457Z,3.87
2018-03-08T06:32:41.536Z,3.95
2018-03-08T06:35:07.578Z,3.75
2018-03-08T06:37:33.575Z,3.85
2018-03-08T06:39:59.650Z,3.98
2018-03-08T06:42:25.681Z,4.03
2018-03-08T06:44:51.728Z,4.06
2018-03-08T06:47:17.750Z,4.10
2018-03-08T06:49:43.801Z,4.09
2018-03-08T06:52:09.778Z,4.11
2018-03-08T06:54:35.782Z,4.08
2018-03-08T06:57:01.785Z,4.10
2018-03-08T06:59:27.814Z,4.16
2018-03-08T07:01:53.830Z,4.15
2018-03-08T07:04:19.814Z,4.12
2018-03-08T07:06:45.843Z,4.15
2018-03-08T07:09:11.838Z,4.18
2018-03-08T07:11:37.898Z,4.12
2018-03-08T07:14:03.953Z,4.15
2018-03-08T07:16:30.025Z,4.16
2018-03-08T07:18:56.170Z,4.21
2018-03-08T07:21:22.184Z,4.20
2018-03-08T07:23:48.153Z,4.20
2018-03-08T07:26:14.138Z,4.26
2018-03-08T07:28:40.251Z,4.29
2018-03-08T07:31:06.289Z,4.36
2018-03-08T07:33:32.387Z,4.36
2018-03-08T07:35:58.388Z,4.39
2018-03-08T07:38:24.403Z,4.41
2018-03-08T07:40:50.431Z,4.29
2018-03-08T07:43:16.470Z,4.34
2018-03-08T07:45:42.514Z,4.42
2018-03-08T07:48:08.529Z,4.47
2018-03-08T07:50:34.495Z,4.41
2018-03-08T07:53:00.496Z,4.50
2018-03-08T07:55:26.557Z,4.51
2018-03-08T07:57:52.576Z,4.51
2018-03-08T08:00:18.684Z,4.59
2018-03-08T08:02:44.650Z,4.58
2018-03-08T08:05:22.938Z,4.69
2018-03-08T08:08:01.092Z,4.81
2018-03-08T08:10:27.117Z,4.89
2018-03-08T08:12:53.087Z,4.97
2018-03-08T08:15:19.129Z,4.99
2018-03-08T08:17:45.136Z,5.03
2018-03-08T08:20:11.153Z,5.00
2018-03-08T08:22:37.165Z,5.07
2018-03-08T08:25:03.615Z,5.17
2018-03-08T08:27:29.662Z,5.13
2018-03-08T08:29:55.665Z,5.17
2018-03-08T08:32:21.848Z,5.18
2018-03-08T08:34:47.873Z,5.11
2018-03-08T08:37:13.918Z,5.12
2018-03-08T08:39:39.908Z,5.15
2018-03-08T08:42:05.943Z,5.18
2018-03-08T08:44:31.994Z,5.23
2018-03-08T08:46:57.973Z,5.22
2018-03-08T08:49:24.057Z,5.37
2018-03-08T08:51:50.062Z,5.55
2018-03-08T08:54:16.066Z,5.68
2018-03-08T08:56:42.100Z,5.68
2018-03-08T08:59:08.107Z,5.71
2018-03-08T09:01:34.275Z,5.64
2018-03-08T09:04:00.301Z,5.73
2018-03-08T09:06:26.268Z,5.84
2018-03-08T09:08:52.334Z,5.97
2018-03-08T09:11:18.378Z,6.09
2018-03-08T09:13:44.377Z,6.07
2018-03-08T09:16:10.407Z,6.09
2018-03-08T09:18:36.498Z,6.11
2018-03-08T09:21:02.645Z,6.09
2018-03-08T09:23:28.683Z,6.09
2018-03-08T09:25:54.819Z,6.05
2018-03-08T09:28:20.845Z,6.03
2018-03-08T09:30:47.109Z,6.03
2018-03-08T09:33:13.154Z,6.16
2018-03-08T09:35:39.247Z,6.33
2018-03-08T09:38:05.249Z,6.43
2018-03-08T09:40:31.338Z,6.53
2018-03-08T09:42:57.366Z,6.46
2018-03-08T09:45:23.438Z,6.36
2018-03-08T09:47:49.513Z,6.14
2018-03-08T09:50:15.473Z,6.04
2018-03-08T09:52:41.429Z,5.83
2018-03-08T09:55:07.479Z,5.51
2018-03-08T09:57:33.507Z,5.28
2018-03-08T09:59:59.529Z,4.98
2018-03-08T10:02:25.585Z,4.84
2018-03-08T10:04:51.630Z,4.82
2018-03-08T10:07:17.675Z,4.72
2018-03-08T10:09:43.679Z,4.55
2018-03-08T10:12:09.705Z,4.56
2018-03-08T10:14:35.743Z,4.40
2018-03-08T10:17:01.787Z,4.33
2018-03-08T10:19:27.790Z,4.10
2018-03-08T10:21:53.777Z,3.94
2018-03-08T10:24:19.808Z,3.96
2018-03-08T10:26:45.851Z,4.00
2018-03-08T10:29:11.873Z,3.97
2018-03-08T10:31:37.909Z,3.92
2018-03-08T10:34:03.934Z,3.92
2018-03-08T10:36:29.980Z,3.88
2018-03-08T10:38:56.009Z,3.97
2018-03-08T10:41:22.014Z,3.97
2018-03-08T10:43:48.065Z,3.97
2018-03-08T10:46:14.101Z,4.04
2018-03-08T10:48:40.207Z,4.00
2018-03-08T10:51:06.134Z,4.05
2018-03-08T10:53:32.227Z,4.04
2018-03-08T10:55:58.289Z,4.12
2018-03-08T10:58:24.326Z,4.19
2018-03-08T11:00:54.371Z,4.26
2018-03-08T11:03:20.435Z,4.39
2018-03-08T11:05:46.457Z,4.48
2018-03-08T11:08:12.614Z,4.64
2018-03-08T11:10:38.606Z,4.91
2018-03-08T11:13:04.690Z,5.13
2018-03-08T11:15:30.782Z,5.40
2018-03-08T11:17:56.824Z,5.68
2018-03-08T11:20:22.882Z,5.99
2018-03-08T11:22:48.877Z,6.22
2018-03-08T11:25:14.939Z,6.35
2018-03-08T11:27:40.945Z,6.31
2018-03-08T11:30:07.211Z,6.28
2018-03-08T11:32:33.266Z,6.20
2018-03-08T11:34:59.267Z,6.35
2018-03-08T11:37:25.222Z,6.36
2018-03-08T11:39:51.291Z,6.68
2018-03-08T11:42:17.313Z,6.76
2018-03-08T11:44:43.335Z,7.16
2018-03-08T11:47:09.378Z,7.27
2018-03-08T11:49:35.397Z,7.19
2018-03-08T11:52:01.403Z,7.08
2018-03-08T11:54:27.448Z,7.25
2018-03-08T11:56:53.474Z,7.34
2018-03-08T11:59:19.578Z,7.29
2018-03-08T12:01:45.641Z,7.04
2018-03-08T12:04:11.654Z,6.91
2018-03-08T12:06:37.692Z,6.93
2018-03-08T12:09:03.706Z,6.97
2018-03-08T12:11:29.786Z,6.84
2018-03-08T12:13:55.812Z,6.81
2018-03-08T12:16:21.934Z,6.84
2018-03-08T12:18:47.931Z,6.92
2018-03-08T12:21:13.957Z,7.23
2018-03-08T12:23:39.997Z,7.82
2018-03-08T12:26:06.010Z,8.13
2018-03-08T12:28:32.039Z,8.89
2018-03-08T12:30:58.026Z,9.13
2018-03-08T12:33:24.023Z,9.78
2018-03-08T12:35:50.073Z,10.09
2018-03-08T12:38:16.073Z,9.84
2018-03-08T12:40:42.114Z,8.95
2018-03-08T12:43:08.191Z,9.27
2018-03-08T12:45:34.250Z,8.97
2018-03-08T12:48:00.321Z,8.60
2018-03-08T12:50:26.260Z,8.27
2018-03-08T12:52:52.285Z,7.99
2018-03-08T12:55:18.301Z,8.59
2018-03-08T12:57:44.355Z,8.45
2018-03-08T13:00:10.371Z,8.49
2018-03-08T13:02:36.459Z,8.44
2018-03-08T13:05:02.934Z,8.43
2018-03-08T13:07:28.953Z,8.28
2018-03-08T13:09:54.995Z,8.26
2018-03-08T13:12:21.014Z,8.27
2018-03-08T13:14:47.100Z,9.40
2018-03-08T13:17:13.123Z,10.50
2018-03-08T13:19:39.099Z,11.00
2018-03-08T13:22:05.092Z,11.76
2018-03-08T13:24:31.086Z,11.73
2018-03-08T13:26:57.074Z,11.71
2018-03-08T13:29:23.047Z,11.95
2018-03-08T13:31:49.084Z,11.00
2018-03-08T13:34:15.057Z,9.84
2018-03-08T13:36:41.153Z,9.74
2018-03-08T13:39:07.229Z,9.69
2018-03-08T13:41:33.205Z,9.59
2018-03-08T13:43:59.209Z,10.74
2018-03-08T13:46:25.233Z,11.11
2018-03-08T13:48:51.273Z,11.00
2018-03-08T13:51:17.269Z,10.32
2018-03-08T13:53:43.366Z,9.92
2018-03-08T13:56:09.393Z,10.33
2018-03-08T13:58:35.471Z,10.20
2018-03-08T14:01:01.430Z,9.99
2018-03-08T14:03:27.501Z,9.80
2018-03-08T14:05:53.504Z,9.64
2018-03-08T14:08:19.610Z,9.93
2018-03-08T14:10:45.646Z,9.97
2018-03-08T14:13:11.652Z,10.21
2018-03-08T14:15:37.710Z,11.59
2018-03-08T14:18:03.681Z,11.90
2018-03-08T14:20:29.717Z,11.00
2018-03-08T14:22:55.739Z,10.30
2018-03-08T14:25:21.761Z,10.05
2018-03-08T14:27:47.829Z,9.79
2018-03-08T14:30:13.901Z,9.65
2018-03-08T14:32:39.953Z,9.63
2018-03-08T14:35:05.960Z,9.62
2018-03-08T14:37:31.995Z,9.51
2018-03-08T14:39:58.002Z,9.46
2018-03-08T14:42:24.025Z,9.44
2018-03-08T14:44:50.033Z,9.49
2018-03-08T14:47:16.030Z,9.40
2018-03-08T14:49:42.035Z,9.30
2018-03-08T14:52:08.041Z,9.23
2018-03-08T14:54:34.072Z,9.18
2018-03-08T14:57:00.335Z,9.13
2018-03-08T14:59:26.380Z,9.09
2018-03-08T15:01:52.430Z,9.07
2018-03-08T15:04:18.525Z,9.09
2018-03-08T15:06:44.518Z,9.11
2018-03-08T15:09:10.542Z,9.16
2018-03-08T15:11:36.630Z,9.34
2018-03-08T15:14:02.626Z,9.40
2018-03-08T15:16:28.771Z,9.53
2018-03-08T15:18:54.889Z,9.83
2018-03-08T15:21:20.925Z,10.93
2018-03-08T15:23:46.968Z,10.95
2018-03-08T15:26:12.993Z,10.43
2018-03-08T15:28:39.108Z,10.66
2018-03-08T15:31:05.114Z,10.49
2018-03-08T15:33:31.469Z,10.70
2018-03-08T15:35:57.443Z,10.54
2018-03-08T15:38:23.465Z,10.44
2018-03-08T15:40:49.602Z,10.37
2018-03-08T15:43:15.887Z,9.89
2018-03-08T15:45:42.485Z,9.88
2018-03-08T15:48:09.406Z,9.83
2018-03-08T15:50:35.447Z,9.74
2018-03-08T15:53:01.475Z,9.64
2018-03-08T15:55:27.529Z,9.61
2018-03-08T15:57:53.618Z,9.55
2018-03-08T16:00:19.683Z,9.50
2018-03-08T16:02:45.751Z,9.39
2018-03-08T16:05:11.834Z,9.32
2018-03-08T16:07:43.861Z,9.27
2018-03-08T16:10:17.946Z,9.26
2018-03-08T16:12:44.031Z,9.15
2018-03-08T16:15:10.053Z,9.11
2018-03-08T16:17:36.143Z,9.11
2018-03-08T16:20:02.234Z,8.99
2018-03-08T16:22:28.386Z,8.98
2018-03-08T16:24:54.490Z,8.94
2018-03-08T16:27:20.524Z,9.08
2018-03-08T16:29:46.661Z,9.11
2018-03-08T16:32:12.790Z,9.09
2018-03-08T16:34:38.818Z,9.09
2018-03-08T16:37:04.909Z,9.01
2018-03-08T16:39:30.906Z,8.88
2018-03-08T16:41:56.962Z,8.85
2018-03-08T16:44:23.003Z,8.72
2018-03-08T16:46:49.056Z,8.64
2018-03-08T16:49:15.119Z,8.57
2018-03-08T16:51:41.161Z,8.49
2018-03-08T16:54:07.176Z,8.42
2018-03-08T16:56:33.250Z,8.38
2018-03-08T16:58:59.339Z,8.31
2018-03-08T17:01:25.372Z,8.17
2018-03-08T17:03:51.697Z,8.09
2018-03-08T17:06:17.708Z,8.05
2018-03-08T17:08:43.714Z,7.88
2018-03-08T17:11:09.902Z,7.84
2018-03-08T17:13:35.919Z,7.72
2018-03-08T17:16:02.034Z,7.76
2018-03-08T17:18:28.286Z,7.83
2018-03-08T17:20:54.312Z,7.68
2018-03-08T17:23:20.294Z,7.51
2018-03-08T17:25:46.350Z,7.31
2018-03-08T17:28:12.392Z,7.24
2018-03-08T17:30:38.400Z,7.19
2018-03-08T17:33:04.474Z,7.04
2018-03-08T17:35:30.523Z,6.87
2018-03-08T17:37:56.549Z,6.72
2018-03-08T17:40:22.641Z,6.57
2018-03-08T17:42:48.637Z,6.54
2018-03-08T17:45:14.661Z,6.44
2018-03-08T17:47:40.691Z,6.37
2018-03-08T17:50:06.730Z,6.35
2018-03-08T17:52:32.728Z,6.24
2018-03-08T17:54:58.829Z,6.11
2018-03-08T17:57:24.778Z,6.04
2018-03-08T17:59:50.800Z,6.03
2018-03-08T18:02:16.830Z,6.02
2018-03-08T18:04:43.084Z,5.89
2018-03-08T18:07:09.147Z,5.89
2018-03-08T18:09:35.221Z,5.72
2018-03-08T18:12:01.278Z,5.67
2018-03-08T18:14:27.396Z,5.54
2018-03-08T18:16:53.501Z,5.52
2018-03-08T18:19:19.610Z,5.48
2018-03-08T18:21:45.626Z,5.59
2018-03-08T18:24:11.659Z,5.53
2018-03-08T18:26:37.680Z,5.46
2018-03-08T18:29:03.787Z,5.42
2018-03-08T18:31:29.826Z,5.29
2018-03-08T18:33:55.928Z,5.23
2018-03-08T18:36:21.951Z,5.09
2018-03-08T18:38:48.070Z,4.97
2018-03-08T18:41:14.106Z,4.97
2018-03-08T18:43:40.158Z,4.93
2018-03-08T18:46:06.202Z,4.90
2018-03-08T18:48:32.281Z,4.69
2018-03-08T18:50:58.298Z,4.67
2018-03-08T18:53:24.350Z,4.60
2018-03-08T18:55:50.400Z,4.65
2018-03-08T18:58:25.621Z,4.59
2018-03-08T19:00:51.627Z,4.56
2018-03-08T19:03:17.659Z,4.45
2018-03-08T19:05:43.735Z,4.48
2018-03-08T19:08:09.769Z,4.43
2018-03-08T19:10:35.736Z,4.44
2018-03-08T19:13:01.785Z,4.39
2018-03-08T19:15:27.865Z,4.38
2018-03-08T19:17:53.903Z,4.34
2018-03-08T19:20:19.905Z,4.32
2018-03-08T19:22:45.932Z,4.27
2018-03-08T19:25:11.907Z,4.23
2018-03-08T19:27:37.976Z,4.18
2018-03-08T19:30:04.090Z,4.16
2018-03-08T19:32:30.170Z,4.10
2018-03-08T19:34:56.175Z,4.08
2018-03-08T19:37:22.236Z,4.05
2018-03-08T19:39:48.282Z,3.84
2018-03-08T19:42:14.363Z,3.90
2018-03-08T19:44:40.533Z,3.81
2018-03-08T19:47:06.676Z,3.80
2018-03-08T19:49:32.719Z,3.76
2018-03-08T19:51:58.781Z,3.76
2018-03-08T19:54:24.819Z,3.68
2018-03-08T19:56:50.882Z,3.49
2018-03-08T19:59:16.977Z,3.47
2018-03-08T20:01:42.986Z,3.28
2018-03-08T20:04:09.072Z,3.30
2018-03-08T20:06:35.127Z,3.33
2018-03-08T20:09:01.151Z,3.28
2018-03-08T20:11:27.180Z,3.17
2018-03-08T20:13:53.232Z,3.16
2018-03-08T20:16:19.352Z,3.08
2018-03-08T20:18:45.501Z,3.14
2018-03-08T20:21:11.570Z,3.07
2018-03-08T20:23:37.625Z,3.11
2018-03-08T20:26:03.637Z,3.01
2018-03-08T20:28:29.990Z,3.09
2018-03-08T20:30:56.018Z,3.03
2018-03-08T20:33:22.117Z,3.03
2018-03-08T20:35:48.184Z,3.14
2018-03-08T20:38:14.157Z,3.09
2018-03-08T20:40:40.139Z,3.10
2018-03-08T20:43:06.158Z,3.19
2018-03-08T20:45:32.239Z,3.22
2018-03-08T20:47:58.219Z,3.26
2018-03-08T20:50:24.257Z,3.29
2018-03-08T20:52:50.278Z,3.29
2018-03-08T20:55:16.284Z,3.49
2018-03-08T20:57:42.395Z,3.72
2018-03-08T21:00:08.424Z,3.88
2018-03-08T21:02:34.442Z,4.11
2018-03-08T21:05:00.450Z,4.44
2018-03-08T21:07:26.477Z,4.71
2018-03-08T21:09:52.470Z,4.70
2018-03-08T21:12:18.474Z,4.90
2018-03-08T21:14:44.505Z,5.01
2018-03-08T21:17:10.534Z,4.83
2018-03-08T21:19:36.563Z,4.73
2018-03-08T21:22:02.618Z,4.53
2018-03-08T21:24:28.686Z,4.27
2018-03-08T21:26:54.684Z,4.23
2018-03-08T21:29:20.708Z,4.15
2018-03-08T21:31:46.722Z,3.94
2018-03-08T21:34:12.736Z,4.34
2018-03-08T21:36:38.792Z,4.35
2018-03-08T21:39:04.842Z,4.38
2018-03-08T21:41:30.910Z,4.58
2018-03-08T21:43:56.906Z,4.55
2018-03-08T21:46:22.953Z,4.54
2018-03-08T21:48:48.942Z,4.39
2018-03-08T21:51:15.373Z,4.39
2018-03-08T21:53:41.413Z,4.31
2018-03-08T21:56:07.455Z,4.33
2018-03-08T21:58:33.542Z,4.19
2018-03-08T22:00:59.520Z,4.21
2018-03-08T22:03:25.481Z,4.18
2018-03-08T22:05:51.557Z,4.11
2018-03-08T22:08:17.597Z,4.11
2018-03-08T22:10:43.674Z,3.94
2018-03-08T22:13:09.714Z,3.96
2018-03-08T22:15:35.780Z,3.96
2018-03-08T22:18:01.820Z,3.92
2018-03-08T22:20:27.961Z,3.93
2018-03-08T22:22:53.981Z,3.83
2018-03-08T22:25:20.011Z,4.39
2018-03-08T22:27:46.014Z,4.74
2018-03-08T22:30:12.337Z,5.04
2018-03-08T22:32:38.301Z,4.65
2018-03-08T22:35:04.314Z,4.37
2018-03-08T22:37:30.346Z,4.41
2018-03-08T22:39:56.707Z,4.23
2018-03-08T22:42:22.801Z,4.33
2018-03-08T22:44:48.792Z,4.52
2018-03-08T22:47:14.810Z,4.51
2018-03-08T22:49:40.838Z,4.63
2018-03-08T22:52:06.881Z,4.80
2018-03-08T22:54:32.897Z,4.88
2018-03-08T22:56:58.914Z,4.54
2018-03-08T22:59:24.942Z,4.25
2018-03-08T23:02:05.848Z,4.05
2018-03-08T23:04:31.863Z,3.89
2018-03-08T23:06:57.874Z,3.69
2018-03-08T23:09:23.913Z,3.68
2018-03-08T23:11:49.945Z,3.46
2018-03-08T23:14:15.974Z,3.50
2018-03-08T23:16:42.018Z,3.42
2018-03-08T23:19:08.054Z,3.39
2018-03-08T23:21:34.065Z,3.37
2018-03-08T23:24:00.077Z,3.33
2018-03-08T23:26:26.085Z,3.31
2018-03-08T23:28:52.067Z,3.42
2018-03-08T23:31:19.006Z,3.40
2018-03-08T23:33:44.997Z,3.43
2018-03-08T23:36:11.066Z,3.55
2018-03-08T23:38:37.084Z,3.60
2018-03-08T23:41:03.086Z,3.42
2018-03-08T23:43:29.497Z,3.62
2018-03-08T23:45:55.512Z,3.65
2018-03-08T23:48:21.541Z,3.45
2018-03-08T23:50:47.544Z,3.21
2018-03-08T23:53:13.588Z,3.47
2018-03-08T23:55:39.685Z,3.45
2018-03-08T23:58:05.789Z,3.31
